sensor_id;sensor_type;location;lat;lon;timestamp;P1;durP1;ratioP1;P2;durP2;ratioP2
45905;SDS011;31619;49.008;12.106;2022-08-19T00:00:25;35.15;;;31.73;;
45905;SDS011;31619;49.008;12.106;2022-08-19T00:02:50;55.95;;;43.58;;
45905;SDS011;31619;49.008;12.106;2022-08-19T00:05:16;58.38;;;42.80;;
45905;SDS011;31619;49.008;12.106;2022-08-19T00:07:42;72.88;;;51.53;;
45905;SDS011;31619;49.008;12.106;2022-08-19T00:10:09;48.80;;;41.63;;
45905;SDS011;31619;49.008;12.106;2022-08-19T00:12:36;63.28;;;50.83;;
45905;SDS011;31619;49.008;12.106;2022-08-19T00:15:04;50.00;;;40.80;;
45905;SDS011;31619;49.008;12.106;2022-08-19T00:17:31;40.05;;;35.80;;
45905;SDS011;31619;49.008;12.106;2022-08-19T00:19:57;36.53;;;33.03;;
45905;SDS011;31619;49.008;12.106;2022-08-19T00:22:22;36.72;;;33.20;;
45905;SDS011;31619;49.008;12.106;2022-08-19T00:24:48;34.40;;;31.23;;
45905;SDS011;31619;49.008;12.106;2022-08-19T00:27:14;37.05;;;33.15;;
45905;SDS011;31619;49.008;12.106;2022-08-19T00:29:40;59.65;;;49.08;;
45905;SDS011;31619;49.008;12.106;2022-08-19T00:32:05;43.45;;;39.13;;
45905;SDS011;31619;49.008;12.106;2022-08-19T00:34:31;47.35;;;42.50;;
45905;SDS011;31619;49.008;12.106;2022-08-19T00:36:57;67.43;;;53.00;;
45905;SDS011;31619;49.008;12.106;2022-08-19T00:39:23;48.08;;;42.92;;
45905;SDS011;31619;49.008;12.106;2022-08-19T00:41:49;38.63;;;34.97;;
45905;SDS011;31619;49.008;12.106;2022-08-19T00:44:23;37.40;;;33.78;;
45905;SDS011;31619;49.008;12.106;2022-08-19T00:46:52;32.08;;;29.10;;
45905;SDS011;31619;49.008;12.106;2022-08-19T00:49:27;31.00;;;28.10;;
45905;SDS011;31619;49.008;12.106;2022-08-19T00:52:04;31.83;;;28.92;;
45905;SDS011;31619;49.008;12.106;2022-08-19T00:54:43;42.95;;;38.40;;
45905;SDS011;31619;49.008;12.106;2022-08-19T00:57:13;36.15;;;32.75;;
45905;SDS011;31619;49.008;12.106;2022-08-19T00:59:44;31.40;;;28.70;;
45905;SDS011;31619;49.008;12.106;2022-08-19T01:02:13;31.83;;;28.90;;
45905;SDS011;31619;49.008;12.106;2022-08-19T01:04:40;37.20;;;33.42;;
45905;SDS011;31619;49.008;12.106;2022-08-19T01:07:05;39.08;;;35.40;;
45905;SDS011;31619;49.008;12.106;2022-08-19T01:09:32;33.53;;;30.60;;
45905;SDS011;31619;49.008;12.106;2022-08-19T01:11:58;37.13;;;33.55;;
45905;SDS011;31619;49.008;12.106;2022-08-19T01:14:23;35.67;;;32.20;;
45905;SDS011;31619;49.008;12.106;2022-08-19T01:16:50;30.42;;;27.73;;
45905;SDS011;31619;49.008;12.106;2022-08-19T01:21:53;30.10;;;27.58;;
45905;SDS011;31619;49.008;12.106;2022-08-19T01:24:24;35.40;;;32.08;;
45905;SDS011;31619;49.008;12.106;2022-08-19T01:26:49;29.90;;;27.20;;
45905;SDS011;31619;49.008;12.106;2022-08-19T01:29:15;27.85;;;25.15;;
45905;SDS011;31619;49.008;12.106;2022-08-19T01:31:40;28.45;;;25.90;;
45905;SDS011;31619;49.008;12.106;2022-08-19T01:34:06;36.70;;;33.30;;
45905;SDS011;31619;49.008;12.106;2022-08-19T01:36:35;35.42;;;31.98;;
45905;SDS011;31619;49.008;12.106;2022-08-19T01:39:04;37.83;;;34.03;;
45905;SDS011;31619;49.008;12.106;2022-08-19T01:41:32;39.22;;;35.40;;
45905;SDS011;31619;49.008;12.106;2022-08-19T01:43:58;39.28;;;35.58;;
45905;SDS011;31619;49.008;12.106;2022-08-19T01:46:26;32.47;;;29.65;;
45905;SDS011;31619;49.008;12.106;2022-08-19T01:48:51;31.13;;;28.42;;
45905;SDS011;31619;49.008;12.106;2022-08-19T01:51:17;28.45;;;26.00;;
45905;SDS011;31619;49.008;12.106;2022-08-19T01:53:45;27.50;;;25.10;;
45905;SDS011;31619;49.008;12.106;2022-08-19T01:56:13;27.00;;;24.70;;
45905;SDS011;31619;49.008;12.106;2022-08-19T01:58:40;26.05;;;23.90;;
45905;SDS011;31619;49.008;12.106;2022-08-19T02:01:11;26.58;;;24.38;;
45905;SDS011;31619;49.008;12.106;2022-08-19T02:03:37;24.88;;;22.75;;
45905;SDS011;31619;49.008;12.106;2022-08-19T02:06:03;28.92;;;26.40;;
45905;SDS011;31619;49.008;12.106;2022-08-19T02:08:30;34.28;;;31.10;;
45905;SDS011;31619;49.008;12.106;2022-08-19T02:10:57;35.85;;;32.28;;
45905;SDS011;31619;49.008;12.106;2022-08-19T02:13:23;30.77;;;28.08;;
45905;SDS011;31619;49.008;12.106;2022-08-19T02:15:50;30.05;;;27.40;;
45905;SDS011;31619;49.008;12.106;2022-08-19T02:18:16;29.30;;;26.63;;
45905;SDS011;31619;49.008;12.106;2022-08-19T02:20:42;28.67;;;26.10;;
45905;SDS011;31619;49.008;12.106;2022-08-19T02:23:08;35.42;;;31.90;;
45905;SDS011;31619;49.008;12.106;2022-08-19T02:25:34;40.13;;;36.00;;
45905;SDS011;31619;49.008;12.106;2022-08-19T02:28:00;37.65;;;33.97;;
45905;SDS011;31619;49.008;12.106;2022-08-19T02:30:26;35.08;;;31.98;;
45905;SDS011;31619;49.008;12.106;2022-08-19T02:32:52;40.53;;;36.42;;
45905;SDS011;31619;49.008;12.106;2022-08-19T02:35:18;39.95;;;36.13;;
45905;SDS011;31619;49.008;12.106;2022-08-19T02:37:44;36.00;;;32.55;;
45905;SDS011;31619;49.008;12.106;2022-08-19T02:40:29;39.78;;;35.90;;
45905;SDS011;31619;49.008;12.106;2022-08-19T02:42:59;33.88;;;30.88;;
45905;SDS011;31619;49.008;12.106;2022-08-19T02:45:26;29.48;;;26.85;;
45905;SDS011;31619;49.008;12.106;2022-08-19T02:47:51;32.58;;;29.50;;
45905;SDS011;31619;49.008;12.106;2022-08-19T02:50:18;40.08;;;36.08;;
45905;SDS011;31619;49.008;12.106;2022-08-19T02:52:43;39.63;;;35.78;;
45905;SDS011;31619;49.008;12.106;2022-08-19T02:55:10;37.28;;;33.55;;
45905;SDS011;31619;49.008;12.106;2022-08-19T02:57:36;36.30;;;32.90;;
45905;SDS011;31619;49.008;12.106;2022-08-19T03:00:03;36.75;;;33.03;;
45905;SDS011;31619;49.008;12.106;2022-08-19T03:02:34;36.33;;;32.72;;
45905;SDS011;31619;49.008;12.106;2022-08-19T03:04:59;36.88;;;33.40;;
45905;SDS011;31619;49.008;12.106;2022-08-19T03:07:27;35.50;;;32.08;;
45905;SDS011;31619;49.008;12.106;2022-08-19T03:09:52;32.80;;;29.70;;
45905;SDS011;31619;49.008;12.106;2022-08-19T03:12:18;32.00;;;29.00;;
45905;SDS011;31619;49.008;12.106;2022-08-19T03:14:43;30.17;;;27.15;;
45905;SDS011;31619;49.008;12.106;2022-08-19T03:17:11;30.98;;;28.10;;
45905;SDS011;31619;49.008;12.106;2022-08-19T03:19:37;31.25;;;28.42;;
45905;SDS011;31619;49.008;12.106;2022-08-19T03:22:03;29.52;;;26.83;;
45905;SDS011;31619;49.008;12.106;2022-08-19T03:24:29;32.47;;;29.35;;
45905;SDS011;31619;49.008;12.106;2022-08-19T03:26:55;31.95;;;28.92;;
45905;SDS011;31619;49.008;12.106;2022-08-19T03:29:22;27.90;;;25.13;;
45905;SDS011;31619;49.008;12.106;2022-08-19T03:31:48;25.10;;;22.80;;
45905;SDS011;31619;49.008;12.106;2022-08-19T03:34:18;26.60;;;23.73;;
45905;SDS011;31619;49.008;12.106;2022-08-19T03:36:45;26.83;;;24.63;;
45905;SDS011;31619;49.008;12.106;2022-08-19T03:39:12;24.02;;;21.85;;
45905;SDS011;31619;49.008;12.106;2022-08-19T03:41:40;24.92;;;22.77;;
45905;SDS011;31619;49.008;12.106;2022-08-19T03:44:07;25.52;;;23.40;;
45905;SDS011;31619;49.008;12.106;2022-08-19T03:46:34;24.80;;;22.80;;
45905;SDS011;31619;49.008;12.106;2022-08-19T03:49:01;20.52;;;18.75;;
45905;SDS011;31619;49.008;12.106;2022-08-19T03:51:33;20.80;;;19.10;;
45905;SDS011;31619;49.008;12.106;2022-08-19T03:54:01;24.83;;;22.58;;
45905;SDS011;31619;49.008;12.106;2022-08-19T03:56:31;23.95;;;21.70;;
45905;SDS011;31619;49.008;12.106;2022-08-19T03:58:59;25.98;;;23.52;;
45905;SDS011;31619;49.008;12.106;2022-08-19T04:01:26;26.23;;;23.88;;
45905;SDS011;31619;49.008;12.106;2022-08-19T04:03:55;21.23;;;19.52;;
45905;SDS011;31619;49.008;12.106;2022-08-19T04:06:27;23.60;;;21.48;;
45905;SDS011;31619;49.008;12.106;2022-08-19T04:08:55;21.55;;;19.63;;
45905;SDS011;31619;49.008;12.106;2022-08-19T04:11:24;22.63;;;20.63;;
45905;SDS011;31619;49.008;12.106;2022-08-19T04:13:51;23.92;;;21.83;;
45905;SDS011;31619;49.008;12.106;2022-08-19T04:16:18;22.48;;;20.45;;
45905;SDS011;31619;49.008;12.106;2022-08-19T04:18:45;24.10;;;21.88;;
45905;SDS011;31619;49.008;12.106;2022-08-19T04:21:19;21.42;;;19.67;;
45905;SDS011;31619;49.008;12.106;2022-08-19T04:23:46;20.00;;;18.23;;
45905;SDS011;31619;49.008;12.106;2022-08-19T04:26:17;24.08;;;21.90;;
45905;SDS011;31619;49.008;12.106;2022-08-19T04:28:45;25.08;;;22.73;;
45905;SDS011;31619;49.008;12.106;2022-08-19T04:31:15;21.48;;;19.67;;
45905;SDS011;31619;49.008;12.106;2022-08-19T04:33:42;22.00;;;19.98;;
45905;SDS011;31619;49.008;12.106;2022-08-19T04:36:10;19.92;;;18.23;;
45905;SDS011;31619;49.008;12.106;2022-08-19T04:38:44;22.25;;;20.10;;
45905;SDS011;31619;49.008;12.106;2022-08-19T04:41:10;22.40;;;20.50;;
45905;SDS011;31619;49.008;12.106;2022-08-19T04:43:54;22.67;;;20.77;;
45905;SDS011;31619;49.008;12.106;2022-08-19T04:46:20;22.42;;;20.45;;
45905;SDS011;31619;49.008;12.106;2022-08-19T04:48:45;17.35;;;15.95;;
45905;SDS011;31619;49.008;12.106;2022-08-19T04:51:11;17.23;;;15.82;;
45905;SDS011;31619;49.008;12.106;2022-08-19T04:53:38;17.27;;;15.88;;
45905;SDS011;31619;49.008;12.106;2022-08-19T04:56:07;15.55;;;14.25;;
45905;SDS011;31619;49.008;12.106;2022-08-19T04:58:38;20.33;;;18.33;;
45905;SDS011;31619;49.008;12.106;2022-08-19T05:01:07;21.38;;;19.33;;
45905;SDS011;31619;49.008;12.106;2022-08-19T05:03:42;19.83;;;18.13;;
45905;SDS011;31619;49.008;12.106;2022-08-19T05:06:10;17.67;;;16.13;;
45905;SDS011;31619;49.008;12.106;2022-08-19T05:08:44;18.08;;;16.50;;
45905;SDS011;31619;49.008;12.106;2022-08-19T05:11:12;16.75;;;15.45;;
45905;SDS011;31619;49.008;12.106;2022-08-19T05:13:46;19.05;;;17.35;;
45905;SDS011;31619;49.008;12.106;2022-08-19T05:16:13;18.80;;;17.15;;
45905;SDS011;31619;49.008;12.106;2022-08-19T05:18:41;16.42;;;15.13;;
45905;SDS011;31619;49.008;12.106;2022-08-19T05:21:25;16.55;;;15.25;;
45905;SDS011;31619;49.008;12.106;2022-08-19T05:24:10;17.30;;;15.90;;
45905;SDS011;31619;49.008;12.106;2022-08-19T05:26:36;15.93;;;14.63;;
45905;SDS011;31619;49.008;12.106;2022-08-19T05:29:03;17.95;;;16.35;;
45905;SDS011;31619;49.008;12.106;2022-08-19T05:31:29;14.98;;;13.77;;
45905;SDS011;31619;49.008;12.106;2022-08-19T05:33:55;14.70;;;13.50;;
45905;SDS011;31619;49.008;12.106;2022-08-19T05:36:23;14.77;;;13.52;;
45905;SDS011;31619;49.008;12.106;2022-08-19T05:38:52;14.88;;;13.57;;
45905;SDS011;31619;49.008;12.106;2022-08-19T05:41:18;15.10;;;13.80;;
45905;SDS011;31619;49.008;12.106;2022-08-19T05:43:45;15.32;;;14.02;;
45905;SDS011;31619;49.008;12.106;2022-08-19T05:46:18;14.57;;;13.40;;
45905;SDS011;31619;49.008;12.106;2022-08-19T05:48:44;14.77;;;13.55;;
45905;SDS011;31619;49.008;12.106;2022-08-19T05:51:10;15.65;;;14.32;;
45905;SDS011;31619;49.008;12.106;2022-08-19T05:53:36;14.10;;;13.07;;
45905;SDS011;31619;49.008;12.106;2022-08-19T05:56:09;15.73;;;14.02;;
45905;SDS011;31619;49.008;12.106;2022-08-19T05:58:37;13.98;;;12.98;;
45905;SDS011;31619;49.008;12.106;2022-08-19T06:01:04;15.75;;;14.45;;
45905;SDS011;31619;49.008;12.106;2022-08-19T06:03:35;14.73;;;13.65;;
45905;SDS011;31619;49.008;12.106;2022-08-19T06:06:02;14.18;;;13.07;;
45905;SDS011;31619;49.008;12.106;2022-08-19T06:08:29;15.07;;;13.98;;
45905;SDS011;31619;49.008;12.106;2022-08-19T06:10:55;14.52;;;13.32;;
45905;SDS011;31619;49.008;12.106;2022-08-19T06:13:20;16.10;;;14.60;;
45905;SDS011;31619;49.008;12.106;2022-08-19T06:15:47;16.98;;;15.48;;
45905;SDS011;31619;49.008;12.106;2022-08-19T06:18:14;14.80;;;13.50;;
45905;SDS011;31619;49.008;12.106;2022-08-19T06:20:40;13.73;;;12.60;;
45905;SDS011;31619;49.008;12.106;2022-08-19T06:23:06;15.55;;;14.20;;
45905;SDS011;31619;49.008;12.106;2022-08-19T06:25:33;15.23;;;14.07;;
45905;SDS011;31619;49.008;12.106;2022-08-19T06:27:59;14.73;;;13.52;;
45905;SDS011;31619;49.008;12.106;2022-08-19T06:30:25;15.02;;;13.82;;
45905;SDS011;31619;49.008;12.106;2022-08-19T06:32:51;14.88;;;13.48;;
45905;SDS011;31619;49.008;12.106;2022-08-19T06:35:16;13.20;;;12.20;;
45905;SDS011;31619;49.008;12.106;2022-08-19T06:37:42;15.70;;;14.18;;
45905;SDS011;31619;49.008;12.106;2022-08-19T06:40:08;14.23;;;13.02;;
45905;SDS011;31619;49.008;12.106;2022-08-19T06:42:35;16.08;;;14.77;;
45905;SDS011;31619;49.008;12.106;2022-08-19T06:45:03;14.82;;;13.52;;
45905;SDS011;31619;49.008;12.106;2022-08-19T06:47:30;15.25;;;13.98;;
45905;SDS011;31619;49.008;12.106;2022-08-19T06:49:57;15.45;;;14.23;;
45905;SDS011;31619;49.008;12.106;2022-08-19T06:52:26;16.83;;;15.43;;
45905;SDS011;31619;49.008;12.106;2022-08-19T06:54:52;15.10;;;13.90;;
45905;SDS011;31619;49.008;12.106;2022-08-19T06:57:21;15.45;;;14.15;;
45905;SDS011;31619;49.008;12.106;2022-08-19T06:59:47;16.73;;;15.13;;
45905;SDS011;31619;49.008;12.106;2022-08-19T07:02:13;16.42;;;14.93;;
45905;SDS011;31619;49.008;12.106;2022-08-19T07:04:38;15.15;;;13.95;;
45905;SDS011;31619;49.008;12.106;2022-08-19T07:07:05;15.45;;;14.23;;
45905;SDS011;31619;49.008;12.106;2022-08-19T07:09:37;16.30;;;14.90;;
45905;SDS011;31619;49.008;12.106;2022-08-19T07:12:06;14.27;;;13.05;;
45905;SDS011;31619;49.008;12.106;2022-08-19T07:14:33;16.20;;;14.90;;
45905;SDS011;31619;49.008;12.106;2022-08-19T07:17:02;15.85;;;14.48;;
45905;SDS011;31619;49.008;12.106;2022-08-19T07:19:30;17.30;;;15.80;;
45905;SDS011;31619;49.008;12.106;2022-08-19T07:21:56;16.92;;;15.52;;
45905;SDS011;31619;49.008;12.106;2022-08-19T07:24:24;15.73;;;14.30;;
45905;SDS011;31619;49.008;12.106;2022-08-19T07:26:52;16.35;;;14.95;;
45905;SDS011;31619;49.008;12.106;2022-08-19T07:29:19;16.10;;;14.50;;
45905;SDS011;31619;49.008;12.106;2022-08-19T07:31:47;15.20;;;13.80;;
45905;SDS011;31619;49.008;12.106;2022-08-19T07:34:17;15.68;;;14.48;;
45905;SDS011;31619;49.008;12.106;2022-08-19T07:36:44;15.45;;;14.18;;
45905;SDS011;31619;49.008;12.106;2022-08-19T07:39:12;16.35;;;15.05;;
45905;SDS011;31619;49.008;12.106;2022-08-19T07:41:40;16.13;;;14.68;;
45905;SDS011;31619;49.008;12.106;2022-08-19T07:44:07;15.63;;;14.32;;
45905;SDS011;31619;49.008;12.106;2022-08-19T07:46:34;16.63;;;15.05;;
45905;SDS011;31619;49.008;12.106;2022-08-19T07:49:03;15.65;;;14.43;;
45905;SDS011;31619;49.008;12.106;2022-08-19T07:51:29;14.95;;;13.63;;
45905;SDS011;31619;49.008;12.106;2022-08-19T07:53:55;15.20;;;14.00;;
45905;SDS011;31619;49.008;12.106;2022-08-19T07:56:21;15.52;;;14.13;;
45905;SDS011;31619;49.008;12.106;2022-08-19T07:58:47;14.93;;;13.73;;
45905;SDS011;31619;49.008;12.106;2022-08-19T08:01:15;15.88;;;14.45;;
45905;SDS011;31619;49.008;12.106;2022-08-19T08:03:48;16.25;;;14.68;;
45905;SDS011;31619;49.008;12.106;2022-08-19T08:06:34;15.30;;;14.00;;
45905;SDS011;31619;49.008;12.106;2022-08-19T08:09:21;15.18;;;14.00;;
45905;SDS011;31619;49.008;12.106;2022-08-19T08:11:51;15.15;;;13.63;;
45905;SDS011;31619;49.008;12.106;2022-08-19T08:14:29;14.93;;;13.77;;
45905;SDS011;31619;49.008;12.106;2022-08-19T08:16:58;14.25;;;12.95;;
45905;SDS011;31619;49.008;12.106;2022-08-19T08:19:25;13.40;;;12.35;;
45905;SDS011;31619;49.008;12.106;2022-08-19T08:21:53;14.35;;;13.05;;
45905;SDS011;31619;49.008;12.106;2022-08-19T08:24:20;14.13;;;13.02;;
45905;SDS011;31619;49.008;12.106;2022-08-19T08:26:46;13.23;;;12.10;;
45905;SDS011;31619;49.008;12.106;2022-08-19T08:29:12;14.27;;;13.05;;
45905;SDS011;31619;49.008;12.106;2022-08-19T08:31:39;13.40;;;12.23;;
45905;SDS011;31619;49.008;12.106;2022-08-19T08:34:05;12.27;;;11.30;;
45905;SDS011;31619;49.008;12.106;2022-08-19T08:36:32;13.40;;;12.30;;
45905;SDS011;31619;49.008;12.106;2022-08-19T08:39:00;12.68;;;11.63;;
45905;SDS011;31619;49.008;12.106;2022-08-19T08:47:02;12.45;;;11.40;;
45905;SDS011;31619;49.008;12.106;2022-08-19T08:52:11;12.43;;;11.43;;
45905;SDS011;31619;49.008;12.106;2022-08-19T08:54:52;12.07;;;11.07;;
45905;SDS011;31619;49.008;12.106;2022-08-19T08:57:26;11.52;;;10.63;;
45905;SDS011;31619;49.008;12.106;2022-08-19T08:59:56;10.65;;;9.85;;
45905;SDS011;31619;49.008;12.106;2022-08-19T09:02:25;11.93;;;10.77;;
45905;SDS011;31619;49.008;12.106;2022-08-19T09:04:51;10.68;;;9.82;;
45905;SDS011;31619;49.008;12.106;2022-08-19T09:08:02;10.48;;;9.68;;
45905;SDS011;31619;49.008;12.106;2022-08-19T09:12:47;10.55;;;9.52;;
45905;SDS011;31619;49.008;12.106;2022-08-19T09:15:38;9.43;;;8.73;;
45905;SDS011;31619;49.008;12.106;2022-08-19T09:18:09;10.40;;;9.27;;
45905;SDS011;31619;49.008;12.106;2022-08-19T09:20:35;10.98;;;10.07;;
45905;SDS011;31619;49.008;12.106;2022-08-19T09:23:00;10.88;;;9.88;;
45905;SDS011;31619;49.008;12.106;2022-08-19T09:25:26;11.10;;;10.20;;
45905;SDS011;31619;49.008;12.106;2022-08-19T09:27:53;10.15;;;9.45;;
45905;SDS011;31619;49.008;12.106;2022-08-19T09:30:22;10.95;;;10.07;;
45905;SDS011;31619;49.008;12.106;2022-08-19T09:32:49;11.73;;;10.77;;
45905;SDS011;31619;49.008;12.106;2022-08-19T09:35:18;12.63;;;11.60;;
45905;SDS011;31619;49.008;12.106;2022-08-19T09:37:47;11.38;;;10.48;;
45905;SDS011;31619;49.008;12.106;2022-08-19T09:40:13;12.05;;;11.00;;
45905;SDS011;31619;49.008;12.106;2022-08-19T09:42:39;11.27;;;10.43;;
45905;SDS011;31619;49.008;12.106;2022-08-19T09:45:05;11.05;;;10.20;;
45905;SDS011;31619;49.008;12.106;2022-08-19T09:47:31;11.38;;;10.45;;
45905;SDS011;31619;49.008;12.106;2022-08-19T09:50:03;11.10;;;10.13;;
45905;SDS011;31619;49.008;12.106;2022-08-19T09:52:33;11.43;;;10.40;;
45905;SDS011;31619;49.008;12.106;2022-08-19T09:55:01;10.82;;;9.98;;
45905;SDS011;31619;49.008;12.106;2022-08-19T09:57:28;11.23;;;10.23;;
45905;SDS011;31619;49.008;12.106;2022-08-19T09:59:54;10.75;;;9.80;;
45905;SDS011;31619;49.008;12.106;2022-08-19T10:02:19;11.05;;;10.07;;
45905;SDS011;31619;49.008;12.106;2022-08-19T10:04:45;10.88;;;9.90;;
45905;SDS011;31619;49.008;12.106;2022-08-19T10:07:30;10.02;;;9.15;;
45905;SDS011;31619;49.008;12.106;2022-08-19T10:09:55;9.20;;;8.48;;
45905;SDS011;31619;49.008;12.106;2022-08-19T10:12:21;9.43;;;8.73;;
45905;SDS011;31619;49.008;12.106;2022-08-19T10:14:47;9.55;;;8.77;;
45905;SDS011;31619;49.008;12.106;2022-08-19T10:17:13;8.88;;;8.20;;
45905;SDS011;31619;49.008;12.106;2022-08-19T10:19:39;13.65;;;9.15;;
45905;SDS011;31619;49.008;12.106;2022-08-19T10:22:06;9.85;;;9.05;;
45905;SDS011;31619;49.008;12.106;2022-08-19T10:24:32;10.45;;;9.55;;
45905;SDS011;31619;49.008;12.106;2022-08-19T10:26:59;10.02;;;9.32;;
45905;SDS011;31619;49.008;12.106;2022-08-19T10:29:28;8.77;;;8.18;;
45905;SDS011;31619;49.008;12.106;2022-08-19T10:31:55;8.65;;;8.00;;
45905;SDS011;31619;49.008;12.106;2022-08-19T10:34:22;8.90;;;8.25;;
45905;SDS011;31619;49.008;12.106;2022-08-19T10:36:48;7.93;;;7.32;;
45905;SDS011;31619;49.008;12.106;2022-08-19T10:39:14;9.20;;;8.50;;
45905;SDS011;31619;49.008;12.106;2022-08-19T10:41:40;8.13;;;7.55;;
45905;SDS011;31619;49.008;12.106;2022-08-19T10:44:08;7.32;;;6.82;;
45905;SDS011;31619;49.008;12.106;2022-08-19T10:46:36;8.70;;;8.10;;
45905;SDS011;31619;49.008;12.106;2022-08-19T10:49:06;10.00;;;7.85;;
45905;SDS011;31619;49.008;12.106;2022-08-19T10:51:33;9.43;;;8.32;;
45905;SDS011;31619;49.008;12.106;2022-08-19T10:54:17;8.13;;;7.43;;
45905;SDS011;31619;49.008;12.106;2022-08-19T10:56:43;8.75;;;8.05;;
45905;SDS011;31619;49.008;12.106;2022-08-19T10:59:22;9.20;;;8.50;;
45905;SDS011;31619;49.008;12.106;2022-08-19T11:01:52;8.30;;;7.70;;
45905;SDS011;31619;49.008;12.106;2022-08-19T11:04:19;9.63;;;8.77;;
45905;SDS011;31619;49.008;12.106;2022-08-19T11:06:45;9.40;;;8.55;;
45905;SDS011;31619;49.008;12.106;2022-08-19T11:09:30;9.32;;;8.52;;
45905;SDS011;31619;49.008;12.106;2022-08-19T11:12:02;9.23;;;8.52;;
45905;SDS011;31619;49.008;12.106;2022-08-19T11:14:28;9.07;;;8.45;;
45905;SDS011;31619;49.008;12.106;2022-08-19T11:16:57;9.70;;;9.00;;
45905;SDS011;31619;49.008;12.106;2022-08-19T11:19:23;8.98;;;8.38;;
45905;SDS011;31619;49.008;12.106;2022-08-19T11:21:49;9.63;;;8.88;;
45905;SDS011;31619;49.008;12.106;2022-08-19T11:24:20;8.65;;;7.95;;
45905;SDS011;31619;49.008;12.106;2022-08-19T11:26:48;9.73;;;8.82;;
45905;SDS011;31619;49.008;12.106;2022-08-19T11:29:16;9.88;;;9.05;;
45905;SDS011;31619;49.008;12.106;2022-08-19T11:31:44;10.15;;;9.30;;
45905;SDS011;31619;49.008;12.106;2022-08-19T11:34:13;10.70;;;9.90;;
45905;SDS011;31619;49.008;12.106;2022-08-19T11:36:42;12.23;;;11.13;;
45905;SDS011;31619;49.008;12.106;2022-08-19T11:39:10;13.15;;;11.95;;
45905;SDS011;31619;49.008;12.106;2022-08-19T11:41:38;13.40;;;12.30;;
45905;SDS011;31619;49.008;12.106;2022-08-19T11:44:05;12.68;;;11.57;;
45905;SDS011;31619;49.008;12.106;2022-08-19T11:46:32;14.15;;;12.88;;
45905;SDS011;31619;49.008;12.106;2022-08-19T11:48:59;15.45;;;14.13;;
45905;SDS011;31619;49.008;12.106;2022-08-19T11:51:26;16.05;;;14.57;;
45905;SDS011;31619;49.008;12.106;2022-08-19T11:53:53;17.48;;;15.82;;
45905;SDS011;31619;49.008;12.106;2022-08-19T11:56:20;18.42;;;16.55;;
45905;SDS011;31619;49.008;12.106;2022-08-19T11:58:46;18.60;;;16.88;;
45905;SDS011;31619;49.008;12.106;2022-08-19T12:01:14;19.27;;;17.35;;
45905;SDS011;31619;49.008;12.106;2022-08-19T12:03:41;18.15;;;16.65;;
45905;SDS011;31619;49.008;12.106;2022-08-19T12:06:09;20.90;;;19.00;;
45905;SDS011;31619;49.008;12.106;2022-08-19T12:08:40;20.20;;;18.20;;
45905;SDS011;31619;49.008;12.106;2022-08-19T12:11:08;20.00;;;18.30;;
45905;SDS011;31619;49.008;12.106;2022-08-19T12:13:34;18.33;;;16.73;;
45905;SDS011;31619;49.008;12.106;2022-08-19T12:16:01;19.00;;;17.30;;
45905;SDS011;31619;49.008;12.106;2022-08-19T12:18:33;15.98;;;14.68;;
45905;SDS011;31619;49.008;12.106;2022-08-19T12:20:58;18.02;;;16.52;;
45905;SDS011;31619;49.008;12.106;2022-08-19T12:23:25;19.02;;;17.20;;
45905;SDS011;31619;49.008;12.106;2022-08-19T12:25:51;18.38;;;16.67;;
45905;SDS011;31619;49.008;12.106;2022-08-19T12:28:20;18.90;;;17.10;;
45905;SDS011;31619;49.008;12.106;2022-08-19T12:30:48;20.17;;;17.88;;
45905;SDS011;31619;49.008;12.106;2022-08-19T12:33:15;17.45;;;15.77;;
45905;SDS011;31619;49.008;12.106;2022-08-19T12:35:42;19.08;;;17.05;;
45905;SDS011;31619;49.008;12.106;2022-08-19T12:38:11;17.20;;;15.60;;
45905;SDS011;31619;49.008;12.106;2022-08-19T12:40:38;16.25;;;14.75;;
45905;SDS011;31619;49.008;12.106;2022-08-19T12:43:05;16.02;;;14.63;;
45905;SDS011;31619;49.008;12.106;2022-08-19T12:45:31;15.85;;;14.40;;
45905;SDS011;31619;49.008;12.106;2022-08-19T12:47:57;16.15;;;14.68;;
45905;SDS011;31619;49.008;12.106;2022-08-19T12:50:23;16.27;;;14.93;;
45905;SDS011;31619;49.008;12.106;2022-08-19T12:52:49;16.95;;;15.48;;
45905;SDS011;31619;49.008;12.106;2022-08-19T12:55:14;17.95;;;16.45;;
45905;SDS011;31619;49.008;12.106;2022-08-19T12:57:40;17.95;;;16.45;;
45905;SDS011;31619;49.008;12.106;2022-08-19T13:00:07;18.60;;;16.88;;
45905;SDS011;31619;49.008;12.106;2022-08-19T13:02:39;18.05;;;16.45;;
45905;SDS011;31619;49.008;12.106;2022-08-19T13:05:09;16.00;;;14.57;;
45905;SDS011;31619;49.008;12.106;2022-08-19T13:07:37;18.42;;;16.90;;
45905;SDS011;31619;49.008;12.106;2022-08-19T13:10:04;18.95;;;17.25;;
45905;SDS011;31619;49.008;12.106;2022-08-19T13:12:35;18.05;;;16.30;;
45905;SDS011;31619;49.008;12.106;2022-08-19T13:15:01;18.02;;;16.52;;
45905;SDS011;31619;49.008;12.106;2022-08-19T13:17:27;19.73;;;17.85;;
45905;SDS011;31619;49.008;12.106;2022-08-19T13:19:53;18.80;;;17.23;;
45905;SDS011;31619;49.008;12.106;2022-08-19T13:22:18;16.85;;;15.45;;
45905;SDS011;31619;49.008;12.106;2022-08-19T13:24:44;18.65;;;16.77;;
45905;SDS011;31619;49.008;12.106;2022-08-19T13:27:10;17.63;;;16.05;;
45905;SDS011;31619;49.008;12.106;2022-08-19T13:29:35;18.15;;;16.55;;
45905;SDS011;31619;49.008;12.106;2022-08-19T13:32:20;14.27;;;13.20;;
45905;SDS011;31619;49.008;12.106;2022-08-19T13:35:04;15.43;;;14.27;;
45905;SDS011;31619;49.008;12.106;2022-08-19T13:37:30;15.40;;;14.20;;
45905;SDS011;31619;49.008;12.106;2022-08-19T13:40:15;15.30;;;14.10;;
45905;SDS011;31619;49.008;12.106;2022-08-19T13:42:49;15.88;;;14.43;;
45905;SDS011;31619;49.008;12.106;2022-08-19T13:45:17;14.23;;;13.07;;
45905;SDS011;31619;49.008;12.106;2022-08-19T13:47:46;13.60;;;12.38;;
45905;SDS011;31619;49.008;12.106;2022-08-19T13:50:14;12.25;;;11.25;;
45905;SDS011;31619;49.008;12.106;2022-08-19T13:52:45;11.68;;;10.70;;
45905;SDS011;31619;49.008;12.106;2022-08-19T13:55:12;11.90;;;11.00;;
45905;SDS011;31619;49.008;12.106;2022-08-19T13:57:39;12.07;;;11.07;;
45905;SDS011;31619;49.008;12.106;2022-08-19T14:00:06;11.25;;;10.35;;
45905;SDS011;31619;49.008;12.106;2022-08-19T14:02:37;12.30;;;11.00;;
45905;SDS011;31619;49.008;12.106;2022-08-19T14:05:04;11.13;;;10.27;;
45905;SDS011;31619;49.008;12.106;2022-08-19T14:07:34;11.40;;;10.50;;
45905;SDS011;31619;49.008;12.106;2022-08-19T14:10:00;10.52;;;9.73;;
45905;SDS011;31619;49.008;12.106;2022-08-19T14:12:27;10.15;;;9.30;;
45905;SDS011;31619;49.008;12.106;2022-08-19T14:14:52;9.77;;;9.07;;
45905;SDS011;31619;49.008;12.106;2022-08-19T14:17:18;11.00;;;10.10;;
45905;SDS011;31619;49.008;12.106;2022-08-19T14:19:44;10.73;;;10.02;;
45905;SDS011;31619;49.008;12.106;2022-08-19T14:22:09;10.77;;;10.02;;
45905;SDS011;31619;49.008;12.106;2022-08-19T14:24:36;10.82;;;9.90;;
45905;SDS011;31619;49.008;12.106;2022-08-19T14:27:04;10.52;;;9.73;;
45905;SDS011;31619;49.008;12.106;2022-08-19T14:29:31;10.55;;;9.85;;